Time;durP1;ratioP1;P1;durP2;ratioP2;P2;SDS_P1;SDS_P2;PMS_P1;PMS_P2;Temp;Humidity;BMP_temperature;BMP_pressure;BME280_temperature;BME280_humidity;BME280_pressure;Samples;Min_cycle;Max_cycle;Signal;HPM_P1;HPM_P2
2022/04/04 00:04:41;;;;;;;;;;;;;;;5.68;100.00;99155.13;5090620;28;20472;-59
2022/04/04 00:29:09;;;;;;;;;;;;;;;6.04;100.00;99141.16;5087680;28;19920;-58
2022/04/04 01:09:13;;;;;;;;;;;;;;;5.50;100.00;99088.06;5088299;28;19920;-58
2022/04/04 01:39:36;;;;;;;;;;;;;;;6.06;100.00;99049.94;5082891;27;19923;-58
2022/04/04 02:19:09;;;;;;;;;;;;;;;4.98;100.00;99006.84;5091242;28;19966;-58
2022/04/04 03:29:10;;;;;;;;;;;;;;;4.42;100.00;98924.84;5088746;28;20018;-59
2022/04/04 03:59:15;;;;;;;;;;;;;;;4.83;100.00;98870.03;5092186;28;19920;-58
2022/04/04 04:04:44;;;;;;;;;;;;;;;4.15;100.00;98869.84;5090294;28;20126;-58
2022/04/04 04:10:12;;;;;;;;;;;;;;;4.85;100.00;98845.38;5089116;28;19923;-60
2022/04/04 04:12:39;;;;;;;;;;;;;;;4.17;100.00;98833.31;5090663;28;19916;-58
2022/04/04 04:49:11;;;;;;;;;;;;;;;4.12;100.00;98794.25;5086427;28;20491;-58
2022/04/04 05:19:11;;;;;;;;;;;;;;;4.30;100.00;98743.97;5090007;28;20014;-57
2022/04/04 05:21:37;;;;;;;;;;;;;;;4.26;100.00;98735.50;5090951;28;19922;-58
2022/04/04 05:24:03;;;;;;;;;;;;;;;3.75;100.00;98730.91;5091674;28;19966;-57
2022/04/04 05:26:29;;;;;;;;;;;;;;;4.66;100.00;98721.47;5073943;28;20688;-56
2022/04/04 05:29:29;;;;;;;;;;;;;;;4.65;100.00;98724.84;5089250;28;20071;-59
2022/04/04 05:41:09;;;;;;;;;;;;;;;4.28;100.00;98710.00;5090508;27;19920;-54
2022/04/04 05:43:35;;;;;;;;;;;;;;;4.12;100.00;98709.31;5090174;28;20032;-56
2022/04/04 05:46:11;;;;;;;;;;;;;;;4.58;100.00;98703.69;5072982;28;20278;-59
2022/04/04 05:49:10;;;;;;;;;;;;;;;4.65;100.00;98710.41;5088608;28;19912;-56
2022/04/04 05:51:45;;;;;;;;;;;;;;;4.71;100.00;98701.84;5094168;28;19918;-59
2022/04/04 05:57:43;;;;;;;;;;;;;;;4.52;100.00;98693.59;5091902;28;19930;-58
2022/04/04 06:09:14;;;;;;;;;;;;;;;4.89;100.00;98672.69;5047863;28;19916;-58
2022/04/04 06:11:39;;;;;;;;;;;;;;;4.69;100.00;98663.59;5049900;28;19920;-59
2022/04/04 06:14:04;;;;;;;;;;;;;;;4.08;100.00;98659.25;5051668;28;19957;-57
2022/04/04 06:16:30;;;;;;;;;;;;;;;4.79;100.00;98667.72;5051420;28;19923;-56
2022/04/04 06:18:55;;;;;;;;;;;;;;;4.63;100.00;98660.28;5050170;28;19955;-55
2022/04/04 06:21:20;;;;;;;;;;;;;;;4.97;100.00;98650.44;5050779;28;19916;-58
2022/04/04 06:23:46;;;;;;;;;;;;;;;4.87;100.00;98654.84;5051599;28;19916;-57
2022/04/04 06:26:12;;;;;;;;;;;;;;;4.56;100.00;98654.41;5050329;28;20026;-56
2022/04/04 06:28:37;;;;;;;;;;;;;;;4.80;100.00;98660.91;5051941;28;19916;-56
2022/04/04 06:31:04;;;;;;;;;;;;;;;5.16;100.00;98646.75;5052424;28;19916;-54
2022/04/04 06:33:29;;;;;;;;;;;;;;;5.07;100.00;98646.88;5034591;28;19963;-56
2022/04/04 06:35:54;;;;;;;;;;;;;;;5.29;100.00;98633.75;5050589;28;19920;-55
2022/04/04 06:38:20;;;;;;;;;;;;;;;5.01;100.00;98627.38;5052537;28;19928;-58
2022/04/04 06:40:45;;;;;;;;;;;;;;;5.43;100.00;98614.81;5075448;28;20691;-57
2022/04/04 06:43:11;;;;;;;;;;;;;;;5.24;100.00;98615.97;5076873;28;20004;-56
2022/04/04 06:45:36;;;;;;;;;;;;;;;5.22;100.00;98615.16;5092663;28;19974;-59
2022/04/04 06:48:01;;;;;;;;;;;;;;;5.42;100.00;98618.22;5094813;28;20311;-55
2022/04/04 06:50:30;;;;;;;;;;;;;;;5.34;100.00;98599.66;5096251;28;19912;-59
2022/04/04 06:56:23;;;;;;;;;;;;;;;5.68;100.00;98600.72;5087217;28;19969;-56
2022/04/04 06:58:49;;;;;;;;;;;;;;;5.27;100.00;98603.19;5088313;28;19924;-59
2022/04/04 07:01:14;;;;;;;;;;;;;;;5.27;100.00;98590.41;5099404;28;19920;-57
2022/04/04 07:10:01;;;;;;;;;;;;;;;5.31;100.00;98576.69;5091086;28;19916;-60
2022/04/04 07:19:15;;;;;;;;;;;;;;;4.76;100.00;98570.78;5089711;28;19939;-58
2022/04/04 07:21:42;;;;;;;;;;;;;;;5.16;100.00;98559.94;5088315;28;19919;-57
2022/04/04 07:30:14;;;;;;;;;;;;;;;4.77;100.00;98551.25;5091389;28;20055;-59
2022/04/04 07:32:40;;;;;;;;;;;;;;;5.54;100.00;98534.56;5089669;28;19939;-59
2022/04/04 07:59:26;;;;;;;;;;;;;;;5.90;100.00;98458.91;4957817;28;20567;-54
2022/04/04 08:49:11;;;;;;;;;;;;;;;6.73;100.00;98352.09;5086890;28;19989;-57
2022/04/04 09:27:18;;;;;;;;;;;;;;;7.40;100.00;98264.78;5083435;28;20461;-58
2022/04/04 09:33:17;;;;;;;;;;;;;;;7.21;100.00;98271.38;5081482;28;20133;-59
2022/04/04 09:35:55;;;;;;;;;;;;;;;6.89;100.00;98261.19;5093455;28;19920;-58
2022/04/04 09:41:28;;;;;;;;;;;;;;;7.44;100.00;98243.31;5088525;28;19973;-57
2022/04/04 09:44:06;;;;;;;;;;;;;;;7.38;100.00;98258.88;5091677;28;19912;-58
2022/04/04 09:49:43;;;;;;;;;;;;;;;7.22;100.00;98250.00;5087457;28;19985;-59
2022/04/04 10:10:29;;;;;;;;;;;;;;;6.80;100.00;98224.81;5086218;28;19958;-59
2022/04/04 10:12:54;;;;;;;;;;;;;;;7.37;100.00;98213.69;5091381;28;19915;-60
2022/04/04 10:15:20;;;;;;;;;;;;;;;6.85;100.00;98212.72;5091027;28;20453;-59
2022/04/04 10:17:45;;;;;;;;;;;;;;;6.62;100.00;98210.81;5073209;28;19920;-58
2022/04/04 10:20:11;;;;;;;;;;;;;;;7.03;100.00;98209.59;5073719;28;19912;-54
2022/04/04 10:29:12;;;;;;;;;;;;;;;6.92;100.00;98196.28;5089140;28;19943;-58
2022/04/04 10:40:46;;;;;;;;;;;;;;;7.52;100.00;98169.59;5093111;27;19946;-57
2022/04/04 10:43:14;;;;;;;;;;;;;;;7.50;100.00;98165.44;5095440;28;19912;-56
2022/04/04 10:46:09;;;;;;;;;;;;;;;6.93;100.00;98163.84;5074184;28;19923;-57
2022/04/04 10:48:36;;;;;;;;;;;;;;;7.47;100.00;98152.72;5073007;28;19915;-60
2022/04/04 10:51:03;;;;;;;;;;;;;;;7.53;100.00;98132.88;5094383;28;19976;-56
2022/04/04 10:53:35;;;;;;;;;;;;;;;7.67;100.00;98134.13;5094464;28;19912;-53
2022/04/04 10:56:00;;;;;;;;;;;;;;;6.87;100.00;98126.50;5095948;28;19927;-53
2022/04/04 10:58:26;;;;;;;;;;;;;;;7.04;100.00;98126.78;5091717;28;19920;-57
2022/04/04 11:00:57;;;;;;;;;;;;;;;7.66;100.00;98129.88;5089142;28;19939;-58
2022/04/04 11:03:29;;;;;;;;;;;;;;;7.33;100.00;98127.56;5093627;28;20198;-59
2022/04/04 11:09:02;;;;;;;;;;;;;;;7.24;100.00;98138.94;5060824;28;19983;-56
2022/04/04 11:11:41;;;;;;;;;;;;;;;7.17;100.00;98127.22;5095294;28;19915;-60
2022/04/04 11:14:07;;;;;;;;;;;;;;;7.83;100.00;98112.19;5092700;28;19966;-59
2022/04/04 11:16:51;;;;;;;;;;;;;;;7.54;100.00;98111.47;5094321;28;20286;-59
2022/04/04 11:19:18;;;;;;;;;;;;;;;7.53;100.00;98116.66;5092624;28;20265;-59
2022/04/04 11:21:43;;;;;;;;;;;;;;;7.17;100.00;98108.47;5075923;28;19915;-55
2022/04/04 11:24:09;;;;;;;;;;;;;;;7.39;100.00;98109.44;5095526;28;19915;-55
2022/04/04 11:26:35;;;;;;;;;;;;;;;6.72;100.00;98125.22;5094168;28;19918;-59
2022/04/04 11:29:01;;;;;;;;;;;;;;;6.07;100.00;98136.50;5093679;28;20331;-57
2022/04/04 11:31:26;;;;;;;;;;;;;;;6.43;100.00;98139.72;5094433;28;19920;-55
2022/04/04 11:33:53;;;;;;;;;;;;;;;6.69;100.00;98138.94;5073669;28;19916;-60
2022/04/04 11:36:22;;;;;;;;;;;;;;;6.07;100.00;98141.63;5072567;28;19916;-57
2022/04/04 11:38:47;;;;;;;;;;;;;;;6.12;100.00;98119.31;5088789;28;19920;-59
2022/04/04 11:41:12;;;;;;;;;;;;;;;7.16;100.00;98124.72;5094124;28;19920;-57
2022/04/04 11:43:40;;;;;;;;;;;;;;;6.66;100.00;98115.16;5092256;28;19997;-59
2022/04/04 11:46:11;;;;;;;;;;;;;;;6.59;100.00;98122.22;5092965;28;19916;-57
2022/04/04 11:48:39;;;;;;;;;;;;;;;6.62;100.00;98114.44;5091054;28;19923;-59
2022/04/04 11:51:07;;;;;;;;;;;;;;;6.35;100.00;98126.31;5073894;28;19920;-60
2022/04/04 11:53:38;;;;;;;;;;;;;;;6.58;100.00;98120.53;5072907;28;19919;-58
2022/04/04 11:56:08;;;;;;;;;;;;;;;5.99;100.00;98117.97;5091407;28;19920;-60
2022/04/04 11:58:37;;;;;;;;;;;;;;;6.69;100.00;98112.53;5093355;28;19997;-57
2022/04/04 12:01:04;;;;;;;;;;;;;;;6.35;100.00;98110.97;5092807;28;19919;-60
2022/04/04 12:03:32;;;;;;;;;;;;;;;6.72;100.00;98111.59;5094765;28;19959;-58
2022/04/04 12:05:58;;;;;;;;;;;;;;;6.85;100.00;98100.94;5093382;28;20387;-56
2022/04/04 12:11:30;;;;;;;;;;;;;;;6.34;100.00;98109.31;5091291;28;19976;-59
2022/04/04 12:20:45;;;;;;;;;;;;;;;6.36;100.00;98086.22;5089711;28;19923;-58
2022/04/04 12:29:26;;;;;;;;;;;;;;;6.12;100.00;98078.41;5089345;28;19912;-59
2022/04/04 12:31:55;;;;;;;;;;;;;;;6.23;100.00;98078.94;5091275;28;19928;-57
2022/04/04 12:34:21;;;;;;;;;;;;;;;6.26;100.00;98073.72;5090952;28;20273;-57
2022/04/04 12:36:47;;;;;;;;;;;;;;;6.34;100.00;98065.84;5088627;28;19977;-58
2022/04/04 12:39:16;;;;;;;;;;;;;;;6.41;100.00;98064.78;5072391;28;19916;-59
2022/04/04 12:50:55;;;;;;;;;;;;;;;5.83;100.00;98046.81;5090049;28;19969;-60
2022/04/04 12:53:21;;;;;;;;;;;;;;;6.18;100.00;98041.59;5091348;28;20378;-58
2022/04/04 12:56:03;;;;;;;;;;;;;;;6.11;100.00;98046.03;5089796;28;19915;-58
2022/04/04 12:58:29;;;;;;;;;;;;;;;6.40;100.00;98036.69;5089356;28;19927;-60
2022/04/04 13:00:55;;;;;;;;;;;;;;;6.26;100.00;98019.22;5089024;28;19916;-57
2022/04/04 13:03:22;;;;;;;;;;;;;;;6.20;100.00;98035.59;5091621;28;19958;-55
2022/04/04 13:05:47;;;;;;;;;;;;;;;5.73;100.00;98034.38;5090601;28;20391;-59
2022/04/04 13:08:22;;;;;;;;;;;;;;;6.12;100.00;98027.28;5094595;28;19916;-56
2022/04/04 13:11:03;;;;;;;;;;;;;;;6.50;100.00;98004.84;5091085;28;19916;-56
2022/04/04 13:13:28;;;;;;;;;;;;;;;5.84;100.00;98042.56;5090443;28;19916;-57
2022/04/04 13:15:53;;;;;;;;;;;;;;;5.74;100.00;98036.84;5090599;28;20368;-56
2022/04/04 13:18:18;;;;;;;;;;;;;;;6.21;100.00;98032.13;5089519;28;19976;-57
2022/04/04 13:20:44;;;;;;;;;;;;;;;6.37;100.00;98026.56;5093714;28;19916;-58
2022/04/04 13:23:09;;;;;;;;;;;;;;;5.65;100.00;98024.34;5091471;28;20038;-60
2022/04/04 13:25:34;;;;;;;;;;;;;;;5.81;100.00;98029.84;5091576;28;20328;-59
2022/04/04 13:27:59;;;;;;;;;;;;;;;6.03;100.00;98027.56;5093545;28;20418;-59
2022/04/04 13:30:25;;;;;;;;;;;;;;;6.86;100.00;98014.75;5090226;28;20065;-56
2022/04/04 13:32:50;;;;;;;;;;;;;;;6.07;100.00;98018.94;5092070;28;19920;-55
2022/04/04 13:35:15;;;;;;;;;;;;;;;5.71;100.00;98019.06;5091083;28;19923;-59
2022/04/04 13:46:50;;;;;;;;;;;;;;;6.13;100.00;98000.00;5088493;28;20442;-56
2022/04/04 13:49:21;;;;;;;;;;;;;;;6.47;100.00;97994.69;5086062;28;19916;-56
2022/04/04 14:19:42;;;;;;;;;;;;;;;6.37;100.00;97970.28;5085584;28;20355;-57
2022/04/04 14:22:13;;;;;;;;;;;;;;;6.39;100.00;97963.41;5089552;28;19922;-56
2022/04/04 14:30:49;;;;;;;;;;;;;;;5.78;100.00;97941.38;5089832;28;20385;-57
2022/04/04 14:33:15;;;;;;;;;;;;;;;6.41;100.00;97930.94;5090164;28;20377;-58
2022/04/04 14:35:41;;;;;;;;;;;;;;;6.25;100.00;97944.22;5091084;28;19961;-59
2022/04/04 14:41:09;;;;;;;;;;;;;;;5.62;100.00;97935.03;5079482;28;20745;-59
2022/04/04 14:43:36;;;;;;;;;;;;;;;5.83;100.00;97934.41;5070228;28;20010;-59
2022/04/04 14:46:01;;;;;;;;;;;;;;;5.85;100.00;97937.75;5088700;28;20409;-59
2022/04/04 14:57:41;;;;;;;;;;;;;;;6.23;100.00;97912.75;5092289;28;19986;-56
2022/04/04 15:00:06;;;;;;;;;;;;;;;5.89;100.00;97925.72;5060459;28;19951;-59
2022/04/04 15:02:35;;;;;;;;;;;;;;;6.38;100.00;97925.94;5089415;28;19920;-57
2022/04/04 15:05:01;;;;;;;;;;;;;;;5.85;100.00;97922.41;5091274;28;19916;-56
2022/04/04 15:07:26;;;;;;;;;;;;;;;5.60;100.00;97929.13;5089220;28;20296;-56
2022/04/04 15:09:51;;;;;;;;;;;;;;;5.66;100.00;97928.97;5090492;28;19916;-54
2022/04/04 15:12:19;;;;;;;;;;;;;;;6.09;100.00;97920.03;5072578;28;19949;-57
2022/04/04 15:14:54;;;;;;;;;;;;;;;6.12;100.00;97912.25;5093484;28;20297;-59
2022/04/04 15:17:20;;;;;;;;;;;;;;;5.47;100.00;97904.84;5066411;28;19959;-60
2022/04/04 15:29:16;;;;;;;;;;;;;;;5.54;100.00;97891.00;5087939;28;20019;-56
2022/04/04 15:40:55;;;;;;;;;;;;;;;5.85;100.00;97896.03;5088040;28;20022;-57
2022/04/04 15:43:21;;;;;;;;;;;;;;;5.94;100.00;97895.78;5086988;28;20059;-59
2022/04/04 15:45:47;;;;;;;;;;;;;;;6.40;100.00;97919.03;5091385;28;19919;-58
2022/04/04 15:51:15;;;;;;;;;;;;;;;6.18;100.00;97929.97;5087627;28;19948;-58
2022/04/04 15:53:40;;;;;;;;;;;;;;;5.78;100.00;97920.94;5091137;28;19995;-57
2022/04/04 15:59:14;;;;;;;;;;;;;;;6.13;100.00;97903.69;5085603;28;19974;-56
2022/04/04 16:10:53;;;;;;;;;;;;;;;6.00;100.00;97899.88;5085907;28;20343;-57
2022/04/04 16:41:14;;;;;;;;;;;;;;;5.94;100.00;97890.66;4970795;28;20020;-59
